sensor_id;sensor_type;location;lat;lon;timestamp;temperature;humidity
18341;DHT22;9296;48.084;16.352;2022-10-26T00:01:21;10.70;99.90
18341;DHT22;9296;48.084;16.352;2022-10-26T00:03:47;10.60;99.90
18341;DHT22;9296;48.084;16.352;2022-10-26T00:09:55;10.60;99.90
18341;DHT22;9296;48.084;16.352;2022-10-26T00:12:22;10.50;99.90
18341;DHT22;9296;48.084;16.352;2022-10-26T00:14:50;10.50;99.90
18341;DHT22;9296;48.084;16.352;2022-10-26T00:17:17;10.50;99.90
18341;DHT22;9296;48.084;16.352;2022-10-26T00:19:44;10.40;99.90
18341;DHT22;9296;48.084;16.352;2022-10-26T00:25:33;10.40;99.90
18341;DHT22;9296;48.084;16.352;2022-10-26T00:28:00;10.50;99.90
18341;DHT22;9296;48.084;16.352;2022-10-26T00:30:29;10.30;99.90
18341;DHT22;9296;48.084;16.352;2022-10-26T00:32:56;10.30;99.90
18341;DHT22;9296;48.084;16.352;2022-10-26T00:35:23;10.30;99.90
18341;DHT22;9296;48.084;16.352;2022-10-26T00:37:53;10.30;99.90
18341;DHT22;9296;48.084;16.352;2022-10-26T00:40:20;10.30;99.90
18341;DHT22;9296;48.084;16.352;2022-10-26T00:42:47;10.20;99.90
18341;DHT22;9296;48.084;16.352;2022-10-26T00:45:22;10.20;99.90
18341;DHT22;9296;48.084;16.352;2022-10-26T00:47:52;10.20;99.90
18341;DHT22;9296;48.084;16.352;2022-10-26T00:50:25;10.20;99.90
18341;DHT22;9296;48.084;16.352;2022-10-26T00:56:16;10.20;99.90
18341;DHT22;9296;48.084;16.352;2022-10-26T00:58:44;10.20;99.90
18341;DHT22;9296;48.084;16.352;2022-10-26T01:01:11;10.10;99.90
18341;DHT22;9296;48.084;16.352;2022-10-26T01:03:39;10.00;99.90
18341;DHT22;9296;48.084;16.352;2022-10-26T01:06:07;10.00;99.90
18341;DHT22;9296;48.084;16.352;2022-10-26T01:08:34;10.00;99.90
18341;DHT22;9296;48.084;16.352;2022-10-26T01:11:02;10.30;99.90
18341;DHT22;9296;48.084;16.352;2022-10-26T01:13:31;10.00;99.90
18341;DHT22;9296;48.084;16.352;2022-10-26T01:16:11;10.00;99.90
18341;DHT22;9296;48.084;16.352;2022-10-26T01:18:49;10.00;99.90
18341;DHT22;9296;48.084;16.352;2022-10-26T01:24:39;10.10;99.90
18341;DHT22;9296;48.084;16.352;2022-10-26T01:27:21;10.10;99.90
18341;DHT22;9296;48.084;16.352;2022-10-26T01:30:16;10.00;99.90
18341;DHT22;9296;48.084;16.352;2022-10-26T01:32:47;10.00;99.90
18341;DHT22;9296;48.084;16.352;2022-10-26T01:35:22;10.20;99.90
18341;DHT22;9296;48.084;16.352;2022-10-26T01:37:57;10.00;99.90
18341;DHT22;9296;48.084;16.352;2022-10-26T01:40:31;10.00;99.90
18341;DHT22;9296;48.084;16.352;2022-10-26T01:43:04;10.00;99.90
18341;DHT22;9296;48.084;16.352;2022-10-26T01:45:36;10.00;99.90
18341;DHT22;9296;48.084;16.352;2022-10-26T01:48:06;10.10;99.90
18341;DHT22;9296;48.084;16.352;2022-10-26T01:50:34;9.90;99.90
18341;DHT22;9296;48.084;16.352;2022-10-26T01:53:02;9.80;99.90
18341;DHT22;9296;48.084;16.352;2022-10-26T01:55:43;9.70;99.90
18341;DHT22;9296;48.084;16.352;2022-10-26T02:01:04;9.60;99.90
18341;DHT22;9296;48.084;16.352;2022-10-26T02:03:41;9.70;99.90
18341;DHT22;9296;48.084;16.352;2022-10-26T02:06:17;9.70;99.90
18341;DHT22;9296;48.084;16.352;2022-10-26T02:08:54;9.80;99.90
18341;DHT22;9296;48.084;16.352;2022-10-26T02:11:31;9.80;99.90
18341;DHT22;9296;48.084;16.352;2022-10-26T02:14:05;10.00;99.90
18341;DHT22;9296;48.084;16.352;2022-10-26T02:16:39;9.80;99.90
18341;DHT22;9296;48.084;16.352;2022-10-26T02:19:16;9.70;99.90
18341;DHT22;9296;48.084;16.352;2022-10-26T02:22:07;9.70;99.90
18341;DHT22;9296;48.084;16.352;2022-10-26T02:24:36;9.70;99.90
18341;DHT22;9296;48.084;16.352;2022-10-26T02:27:05;9.70;99.90
18341;DHT22;9296;48.084;16.352;2022-10-26T02:29:34;9.60;99.90
18341;DHT22;9296;48.084;16.352;2022-10-26T02:32:05;9.60;99.90
18341;DHT22;9296;48.084;16.352;2022-10-26T02:34:33;9.60;99.90
18341;DHT22;9296;48.084;16.352;2022-10-26T02:37:03;9.60;99.90
18341;DHT22;9296;48.084;16.352;2022-10-26T02:39:33;9.40;99.90
18341;DHT22;9296;48.084;16.352;2022-10-26T02:42:03;9.50;99.90
18341;DHT22;9296;48.084;16.352;2022-10-26T02:44:34;9.50;99.90
18341;DHT22;9296;48.084;16.352;2022-10-26T02:47:03;9.50;99.90
18341;DHT22;9296;48.084;16.352;2022-10-26T02:49:30;9.40;99.90
18341;DHT22;9296;48.084;16.352;2022-10-26T02:52:01;9.40;99.90
18341;DHT22;9296;48.084;16.352;2022-10-26T02:54:34;9.40;99.90
18341;DHT22;9296;48.084;16.352;2022-10-26T02:57:06;9.40;99.90
18341;DHT22;9296;48.084;16.352;2022-10-26T02:59:36;9.40;99.90
18341;DHT22;9296;48.084;16.352;2022-10-26T03:02:06;9.40;99.90
18341;DHT22;9296;48.084;16.352;2022-10-26T03:04:34;9.30;99.90
18341;DHT22;9296;48.084;16.352;2022-10-26T03:10:07;9.30;99.90
18341;DHT22;9296;48.084;16.352;2022-10-26T03:12:34;9.30;99.90
18341;DHT22;9296;48.084;16.352;2022-10-26T03:15:01;9.30;99.90
18341;DHT22;9296;48.084;16.352;2022-10-26T03:17:30;9.10;99.90
18341;DHT22;9296;48.084;16.352;2022-10-26T03:19:57;9.00;99.90
18341;DHT22;9296;48.084;16.352;2022-10-26T03:23:01;9.00;99.90
18341;DHT22;9296;48.084;16.352;2022-10-26T03:25:28;9.10;99.90
18341;DHT22;9296;48.084;16.352;2022-10-26T03:27:58;9.10;99.90
18341;DHT22;9296;48.084;16.352;2022-10-26T03:30:25;9.20;99.90
18341;DHT22;9296;48.084;16.352;2022-10-26T03:32:54;9.20;99.90
18341;DHT22;9296;48.084;16.352;2022-10-26T03:35:21;9.20;99.90
18341;DHT22;9296;48.084;16.352;2022-10-26T03:37:48;9.20;99.90
18341;DHT22;9296;48.084;16.352;2022-10-26T03:40:15;9.40;99.90
18341;DHT22;9296;48.084;16.352;2022-10-26T03:42:42;9.30;99.90
18341;DHT22;9296;48.084;16.352;2022-10-26T03:45:09;9.30;99.90
18341;DHT22;9296;48.084;16.352;2022-10-26T03:47:43;9.40;99.90
18341;DHT22;9296;48.084;16.352;2022-10-26T03:50:13;9.40;99.90
18341;DHT22;9296;48.084;16.352;2022-10-26T03:52:40;9.50;99.90
18341;DHT22;9296;48.084;16.352;2022-10-26T03:55:08;9.50;99.90
18341;DHT22;9296;48.084;16.352;2022-10-26T03:57:39;9.40;99.90
18341;DHT22;9296;48.084;16.352;2022-10-26T04:00:07;9.30;99.90
18341;DHT22;9296;48.084;16.352;2022-10-26T04:02:34;9.30;99.90
18341;DHT22;9296;48.084;16.352;2022-10-26T04:05:01;9.40;99.90
18341;DHT22;9296;48.084;16.352;2022-10-26T04:11:19;9.30;99.90
18341;DHT22;9296;48.084;16.352;2022-10-26T04:13:47;9.40;99.90
18341;DHT22;9296;48.084;16.352;2022-10-26T04:16:13;9.40;99.90
18341;DHT22;9296;48.084;16.352;2022-10-26T04:18:40;9.40;99.90
18341;DHT22;9296;48.084;16.352;2022-10-26T04:21:07;9.40;99.90
18341;DHT22;9296;48.084;16.352;2022-10-26T04:26:57;9.40;99.90
18341;DHT22;9296;48.084;16.352;2022-10-26T04:29:24;9.40;99.90
18341;DHT22;9296;48.084;16.352;2022-10-26T04:31:51;9.30;99.90
18341;DHT22;9296;48.084;16.352;2022-10-26T04:34:18;9.40;99.90
18341;DHT22;9296;48.084;16.352;2022-10-26T04:36:45;9.30;99.90
18341;DHT22;9296;48.084;16.352;2022-10-26T04:42:41;9.30;99.90
18341;DHT22;9296;48.084;16.352;2022-10-26T04:45:09;9.10;99.90
18341;DHT22;9296;48.084;16.352;2022-10-26T04:47:37;9.10;99.90
18341;DHT22;9296;48.084;16.352;2022-10-26T04:50:05;9.20;99.90
18341;DHT22;9296;48.084;16.352;2022-10-26T04:59:18;9.20;99.90
18341;DHT22;9296;48.084;16.352;2022-10-26T05:01:45;9.10;99.90
18341;DHT22;9296;48.084;16.352;2022-10-26T05:04:12;9.10;99.90
18341;DHT22;9296;48.084;16.352;2022-10-26T05:06:39;9.10;99.90
18341;DHT22;9296;48.084;16.352;2022-10-26T05:12:14;9.00;99.90
18341;DHT22;9296;48.084;16.352;2022-10-26T05:14:42;9.00;99.90
18341;DHT22;9296;48.084;16.352;2022-10-26T05:17:09;9.00;99.90
18341;DHT22;9296;48.084;16.352;2022-10-26T05:19:36;9.10;99.90
18341;DHT22;9296;48.084;16.352;2022-10-26T05:22:03;9.00;99.90
18341;DHT22;9296;48.084;16.352;2022-10-26T05:24:30;9.20;99.90
18341;DHT22;9296;48.084;16.352;2022-10-26T05:26:57;9.20;99.90
18341;DHT22;9296;48.084;16.352;2022-10-26T05:29:26;9.30;99.90
18341;DHT22;9296;48.084;16.352;2022-10-26T05:31:54;9.40;99.90
18341;DHT22;9296;48.084;16.352;2022-10-26T05:34:21;9.50;99.90
18341;DHT22;9296;48.084;16.352;2022-10-26T05:36:51;9.50;99.90
18341;DHT22;9296;48.084;16.352;2022-10-26T05:39:18;9.50;99.90
18341;DHT22;9296;48.084;16.352;2022-10-26T05:41:45;9.60;99.90
18341;DHT22;9296;48.084;16.352;2022-10-26T05:44:12;9.90;99.90
18341;DHT22;9296;48.084;16.352;2022-10-26T05:46:39;9.80;99.90
18341;DHT22;9296;48.084;16.352;2022-10-26T05:49:07;9.90;99.90
18341;DHT22;9296;48.084;16.352;2022-10-26T05:51:34;9.90;99.90
18341;DHT22;9296;48.084;16.352;2022-10-26T05:54:02;10.00;99.90
18341;DHT22;9296;48.084;16.352;2022-10-26T05:56:43;10.10;99.90
18341;DHT22;9296;48.084;16.352;2022-10-26T05:59:11;10.20;99.90
18341;DHT22;9296;48.084;16.352;2022-10-26T06:01:58;10.20;99.90
18341;DHT22;9296;48.084;16.352;2022-10-26T06:04:36;10.30;99.90
18341;DHT22;9296;48.084;16.352;2022-10-26T06:07:08;10.40;99.90
18341;DHT22;9296;48.084;16.352;2022-10-26T06:09:37;10.40;99.90
18341;DHT22;9296;48.084;16.352;2022-10-26T06:12:05;10.60;99.90
18341;DHT22;9296;48.084;16.352;2022-10-26T06:14:36;10.70;99.90
18341;DHT22;9296;48.084;16.352;2022-10-26T06:17:14;10.80;99.90
18341;DHT22;9296;48.084;16.352;2022-10-26T06:20:01;11.00;99.90
18341;DHT22;9296;48.084;16.352;2022-10-26T06:22:41;11.00;99.90
18341;DHT22;9296;48.084;16.352;2022-10-26T06:25:20;11.00;99.90
18341;DHT22;9296;48.084;16.352;2022-10-26T06:27:55;11.20;99.90
18341;DHT22;9296;48.084;16.352;2022-10-26T06:30:25;11.30;99.90
18341;DHT22;9296;48.084;16.352;2022-10-26T06:32:55;11.40;99.90
18341;DHT22;9296;48.084;16.352;2022-10-26T06:35:31;11.50;99.90
18341;DHT22;9296;48.084;16.352;2022-10-26T06:38:02;11.30;99.90
18341;DHT22;9296;48.084;16.352;2022-10-26T06:40:32;11.40;99.90
18341;DHT22;9296;48.084;16.352;2022-10-26T06:43:02;11.50;99.90
18341;DHT22;9296;48.084;16.352;2022-10-26T06:45:29;11.50;99.90
18341;DHT22;9296;48.084;16.352;2022-10-26T06:48:01;11.50;99.90
18341;DHT22;9296;48.084;16.352;2022-10-26T06:50:35;11.70;99.90
18341;DHT22;9296;48.084;16.352;2022-10-26T06:53:15;11.50;99.90
18341;DHT22;9296;48.084;16.352;2022-10-26T06:55:46;11.60;99.90
18341;DHT22;9296;48.084;16.352;2022-10-26T06:58:19;11.50;99.90
18341;DHT22;9296;48.084;16.352;2022-10-26T07:00:48;11.60;99.90
18341;DHT22;9296;48.084;16.352;2022-10-26T07:03:18;11.60;99.90
18341;DHT22;9296;48.084;16.352;2022-10-26T07:05:46;11.60;99.90
18341;DHT22;9296;48.084;16.352;2022-10-26T07:08:14;11.70;99.90
18341;DHT22;9296;48.084;16.352;2022-10-26T07:10:41;11.70;99.90
18341;DHT22;9296;48.084;16.352;2022-10-26T07:13:10;11.60;99.90
18341;DHT22;9296;48.084;16.352;2022-10-26T07:15:38;11.80;99.90
18341;DHT22;9296;48.084;16.352;2022-10-26T07:18:06;11.90;99.90
18341;DHT22;9296;48.084;16.352;2022-10-26T07:20:35;11.90;99.90
18341;DHT22;9296;48.084;16.352;2022-10-26T07:23:07;12.10;99.90
18341;DHT22;9296;48.084;16.352;2022-10-26T07:25:37;12.20;99.90
18341;DHT22;9296;48.084;16.352;2022-10-26T07:28:09;12.30;99.90
18341;DHT22;9296;48.084;16.352;2022-10-26T07:30:37;12.50;99.90
18341;DHT22;9296;48.084;16.352;2022-10-26T07:33:06;12.60;99.90
18341;DHT22;9296;48.084;16.352;2022-10-26T07:35:34;12.70;99.90
18341;DHT22;9296;48.084;16.352;2022-10-26T07:38:07;12.70;99.90
18341;DHT22;9296;48.084;16.352;2022-10-26T07:40:35;12.80;99.90
18341;DHT22;9296;48.084;16.352;2022-10-26T07:43:05;12.80;99.90
18341;DHT22;9296;48.084;16.352;2022-10-26T07:45:32;12.70;99.90
18341;DHT22;9296;48.084;16.352;2022-10-26T07:47:59;12.90;99.90
18341;DHT22;9296;48.084;16.352;2022-10-26T07:50:30;12.70;99.90
18341;DHT22;9296;48.084;16.352;2022-10-26T07:52:58;13.00;99.90
18341;DHT22;9296;48.084;16.352;2022-10-26T07:55:30;12.90;99.90
18341;DHT22;9296;48.084;16.352;2022-10-26T07:57:59;12.90;99.90
18341;DHT22;9296;48.084;16.352;2022-10-26T08:00:27;12.70;99.90
18341;DHT22;9296;48.084;16.352;2022-10-26T08:02:56;12.50;99.90
18341;DHT22;9296;48.084;16.352;2022-10-26T08:05:27;12.60;99.90
18341;DHT22;9296;48.084;16.352;2022-10-26T08:14:45;12.60;99.90
18341;DHT22;9296;48.084;16.352;2022-10-26T08:17:17;12.50;99.90
18341;DHT22;9296;48.084;16.352;2022-10-26T08:19:46;12.40;99.90
18341;DHT22;9296;48.084;16.352;2022-10-26T08:22:17;12.50;99.90
18341;DHT22;9296;48.084;16.352;2022-10-26T08:24:47;12.30;99.90
18341;DHT22;9296;48.084;16.352;2022-10-26T08:27:15;12.50;99.90
18341;DHT22;9296;48.084;16.352;2022-10-26T08:29:44;12.50;99.90
18341;DHT22;9296;48.084;16.352;2022-10-26T08:32:11;12.50;99.90
18341;DHT22;9296;48.084;16.352;2022-10-26T08:34:38;12.40;99.90
18341;DHT22;9296;48.084;16.352;2022-10-26T08:37:06;12.50;99.90
18341;DHT22;9296;48.084;16.352;2022-10-26T08:42:59;12.50;99.90
18341;DHT22;9296;48.084;16.352;2022-10-26T08:45:32;12.80;99.90
18341;DHT22;9296;48.084;16.352;2022-10-26T08:48:05;12.50;99.90
18341;DHT22;9296;48.084;16.352;2022-10-26T08:50:40;12.50;99.90
18341;DHT22;9296;48.084;16.352;2022-10-26T08:56:36;12.70;99.90
18341;DHT22;9296;48.084;16.352;2022-10-26T08:59:11;12.80;99.90
18341;DHT22;9296;48.084;16.352;2022-10-26T09:01:40;12.90;99.90
18341;DHT22;9296;48.084;16.352;2022-10-26T09:04:11;13.10;99.90
18341;DHT22;9296;48.084;16.352;2022-10-26T09:06:47;13.00;99.90
18341;DHT22;9296;48.084;16.352;2022-10-26T09:09:20;13.20;99.90
18341;DHT22;9296;48.084;16.352;2022-10-26T09:11:56;13.30;99.90
18341;DHT22;9296;48.084;16.352;2022-10-26T09:14:33;13.40;99.90
18341;DHT22;9296;48.084;16.352;2022-10-26T09:17:11;13.50;99.90
18341;DHT22;9296;48.084;16.352;2022-10-26T09:19:53;13.70;99.90
18341;DHT22;9296;48.084;16.352;2022-10-26T09:22:25;13.70;99.90
18341;DHT22;9296;48.084;16.352;2022-10-26T09:28:17;13.70;99.90
18341;DHT22;9296;48.084;16.352;2022-10-26T09:30:45;13.70;99.90
18341;DHT22;9296;48.084;16.352;2022-10-26T09:33:21;14.00;99.90
18341;DHT22;9296;48.084;16.352;2022-10-26T09:35:51;13.80;99.90
18341;DHT22;9296;48.084;16.352;2022-10-26T09:45:04;13.70;99.90
18341;DHT22;9296;48.084;16.352;2022-10-26T09:47:35;13.80;99.90
18341;DHT22;9296;48.084;16.352;2022-10-26T09:50:16;13.90;99.90
18341;DHT22;9296;48.084;16.352;2022-10-26T09:52:44;13.80;99.90
18341;DHT22;9296;48.084;16.352;2022-10-26T09:58:19;13.90;99.90
18341;DHT22;9296;48.084;16.352;2022-10-26T10:00:51;14.00;99.90
18341;DHT22;9296;48.084;16.352;2022-10-26T10:03:19;14.30;99.90
18341;DHT22;9296;48.084;16.352;2022-10-26T10:05:48;14.20;99.90
18341;DHT22;9296;48.084;16.352;2022-10-26T10:08:18;14.30;99.90
18341;DHT22;9296;48.084;16.352;2022-10-26T10:10:59;14.60;99.90
18341;DHT22;9296;48.084;16.352;2022-10-26T10:13:30;14.50;99.90
18341;DHT22;9296;48.084;16.352;2022-10-26T10:16:02;14.60;99.90
18341;DHT22;9296;48.084;16.352;2022-10-26T10:18:32;14.80;99.90
18341;DHT22;9296;48.084;16.352;2022-10-26T10:21:02;14.60;99.90
18341;DHT22;9296;48.084;16.352;2022-10-26T10:23:31;14.60;99.90
18341;DHT22;9296;48.084;16.352;2022-10-26T10:26:05;14.60;99.90
18341;DHT22;9296;48.084;16.352;2022-10-26T10:28:36;14.60;99.90
18341;DHT22;9296;48.084;16.352;2022-10-26T10:31:05;14.80;99.90
18341;DHT22;9296;48.084;16.352;2022-10-26T10:33:43;14.70;99.90
18341;DHT22;9296;48.084;16.352;2022-10-26T10:36:17;14.80;99.90
18341;DHT22;9296;48.084;16.352;2022-10-26T10:38:46;15.10;99.90
18341;DHT22;9296;48.084;16.352;2022-10-26T10:41:17;15.00;99.90
18341;DHT22;9296;48.084;16.352;2022-10-26T10:43:46;15.10;99.90
18341;DHT22;9296;48.084;16.352;2022-10-26T10:46:21;14.80;99.90
18341;DHT22;9296;48.084;16.352;2022-10-26T10:48:59;14.80;99.90
18341;DHT22;9296;48.084;16.352;2022-10-26T10:51:32;14.70;99.90
18341;DHT22;9296;48.084;16.352;2022-10-26T10:57:52;14.60;99.90
18341;DHT22;9296;48.084;16.352;2022-10-26T11:00:22;14.50;99.90
18341;DHT22;9296;48.084;16.352;2022-10-26T11:03:03;14.60;99.90
18341;DHT22;9296;48.084;16.352;2022-10-26T11:08:30;14.80;99.90
18341;DHT22;9296;48.084;16.352;2022-10-26T11:11:01;14.90;99.90
18341;DHT22;9296;48.084;16.352;2022-10-26T11:13:34;15.00;99.90
18341;DHT22;9296;48.084;16.352;2022-10-26T11:16:04;15.00;99.90
18341;DHT22;9296;48.084;16.352;2022-10-26T11:18:35;15.10;99.90
18341;DHT22;9296;48.084;16.352;2022-10-26T11:21:21;15.10;99.90
18341;DHT22;9296;48.084;16.352;2022-10-26T11:24:14;15.00;99.90
18341;DHT22;9296;48.084;16.352;2022-10-26T11:26:47;15.20;99.90
18341;DHT22;9296;48.084;16.352;2022-10-26T11:29:32;15.20;99.90
18341;DHT22;9296;48.084;16.352;2022-10-26T11:32:04;15.30;99.90
18341;DHT22;9296;48.084;16.352;2022-10-26T11:34:43;15.40;99.90
18341;DHT22;9296;48.084;16.352;2022-10-26T11:37:18;15.20;99.90
18341;DHT22;9296;48.084;16.352;2022-10-26T11:43:15;15.40;99.90
18341;DHT22;9296;48.084;16.352;2022-10-26T11:45:45;15.50;99.90
18341;DHT22;9296;48.084;16.352;2022-10-26T11:48:18;15.50;99.90
18341;DHT22;9296;48.084;16.352;2022-10-26T11:50:50;15.50;99.90
18341;DHT22;9296;48.084;16.352;2022-10-26T11:53:20;15.70;99.90
18341;DHT22;9296;48.084;16.352;2022-10-26T11:55:51;15.80;99.90
18341;DHT22;9296;48.084;16.352;2022-10-26T11:58:23;16.00;99.90
18341;DHT22;9296;48.084;16.352;2022-10-26T12:01:24;15.90;99.90
18341;DHT22;9296;48.084;16.352;2022-10-26T12:04:00;16.10;99.90
18341;DHT22;9296;48.084;16.352;2022-10-26T12:06:32;16.30;99.90
18341;DHT22;9296;48.084;16.352;2022-10-26T12:09:03;16.40;99.90
18341;DHT22;9296;48.084;16.352;2022-10-26T12:11:37;16.40;99.90
18341;DHT22;9296;48.084;16.352;2022-10-26T12:14:16;16.40;99.90
18341;DHT22;9296;48.084;16.352;2022-10-26T12:16:50;16.20;99.90
18341;DHT22;9296;48.084;16.352;2022-10-26T12:19:23;16.10;99.90
18341;DHT22;9296;48.084;16.352;2022-10-26T12:21:52;16.00;99.90
18341;DHT22;9296;48.084;16.352;2022-10-26T12:27:56;15.90;99.90
18341;DHT22;9296;48.084;16.352;2022-10-26T12:30:29;15.90;99.90
18341;DHT22;9296;48.084;16.352;2022-10-26T12:32:57;15.90;99.90
18341;DHT22;9296;48.084;16.352;2022-10-26T12:35:33;15.80;99.90
18341;DHT22;9296;48.084;16.352;2022-10-26T12:41:18;16.20;99.90
18341;DHT22;9296;48.084;16.352;2022-10-26T12:43:45;16.20;99.90
18341;DHT22;9296;48.084;16.352;2022-10-26T12:46:38;16.30;99.90
18341;DHT22;9296;48.084;16.352;2022-10-26T12:52:17;16.20;99.90
18341;DHT22;9296;48.084;16.352;2022-10-26T12:54:55;16.30;99.90
18341;DHT22;9296;48.084;16.352;2022-10-26T12:57:30;16.40;99.90
18341;DHT22;9296;48.084;16.352;2022-10-26T13:00:01;16.50;99.90
18341;DHT22;9296;48.084;16.352;2022-10-26T13:08:32;16.50;99.90
18341;DHT22;9296;48.084;16.352;2022-10-26T13:11:06;16.50;99.90
18341;DHT22;9296;48.084;16.352;2022-10-26T13:13:39;16.60;99.90
18341;DHT22;9296;48.084;16.352;2022-10-26T13:16:10;16.60;99.90
18341;DHT22;9296;48.084;16.352;2022-10-26T13:18:41;16.80;99.90
18341;DHT22;9296;48.084;16.352;2022-10-26T13:21:12;16.30;99.90
18341;DHT22;9296;48.084;16.352;2022-10-26T13:23:41;16.30;99.90
18341;DHT22;9296;48.084;16.352;2022-10-26T13:26:10;16.50;99.90
18341;DHT22;9296;48.084;16.352;2022-10-26T13:28:48;16.30;99.90
18341;DHT22;9296;48.084;16.352;2022-10-26T13:31:52;15.90;99.90
18341;DHT22;9296;48.084;16.352;2022-10-26T13:34:22;15.90;99.90
18341;DHT22;9296;48.084;16.352;2022-10-26T13:37:02;15.80;99.90
18341;DHT22;9296;48.084;16.352;2022-10-26T13:39:34;15.80;99.90
18341;DHT22;9296;48.084;16.352;2022-10-26T13:42:01;15.70;99.90
18341;DHT22;9296;48.084;16.352;2022-10-26T13:44:32;15.70;99.90
18341;DHT22;9296;48.084;16.352;2022-10-26T13:47:05;15.70;99.90
18341;DHT22;9296;48.084;16.352;2022-10-26T13:49:39;15.50;99.90
18341;DHT22;9296;48.084;16.352;2022-10-26T13:52:14;15.50;99.90
18341;DHT22;9296;48.084;16.352;2022-10-26T13:57:21;15.50;99.90
18341;DHT22;9296;48.084;16.352;2022-10-26T13:59:49;15.50;99.90
18341;DHT22;9296;48.084;16.352;2022-10-26T14:02:22;15.70;99.90
18341;DHT22;9296;48.084;16.352;2022-10-26T14:04:58;15.70;99.90
18341;DHT22;9296;48.084;16.352;2022-10-26T14:07:33;15.40;99.90
18341;DHT22;9296;48.084;16.352;2022-10-26T14:10:03;15.60;99.90
18341;DHT22;9296;48.084;16.352;2022-10-26T14:12:31;15.30;99.90
18341;DHT22;9296;48.084;16.352;2022-10-26T14:15:02;15.40;99.90
18341;DHT22;9296;48.084;16.352;2022-10-26T14:17:32;15.40;99.90
18341;DHT22;9296;48.084;16.352;2022-10-26T14:19:59;15.30;99.90
18341;DHT22;9296;48.084;16.352;2022-10-26T14:22:37;15.30;99.90
18341;DHT22;9296;48.084;16.352;2022-10-26T14:28:42;15.20;99.90
18341;DHT22;9296;48.084;16.352;2022-10-26T14:31:12;15.20;99.90
18341;DHT22;9296;48.084;16.352;2022-10-26T14:33:40;15.20;99.90
18341;DHT22;9296;48.084;16.352;2022-10-26T14:36:08;15.20;99.90
18341;DHT22;9296;48.084;16.352;2022-10-26T14:38:42;15.10;99.90
18341;DHT22;9296;48.084;16.352;2022-10-26T14:41:15;15.30;99.90
18341;DHT22;9296;48.084;16.352;2022-10-26T14:46:33;15.30;99.90
18341;DHT22;9296;48.084;16.352;2022-10-26T14:49:02;15.30;99.90
18341;DHT22;9296;48.084;16.352;2022-10-26T14:51:34;15.30;99.90
18341;DHT22;9296;48.084;16.352;2022-10-26T14:54:04;15.20;99.90
18341;DHT22;9296;48.084;16.352;2022-10-26T14:56:45;15.20;99.90
18341;DHT22;9296;48.084;16.352;2022-10-26T14:59:19;14.90;99.90
18341;DHT22;9296;48.084;16.352;2022-10-26T15:01:53;14.90;99.90
18341;DHT22;9296;48.084;16.352;2022-10-26T15:04:29;15.00;99.90
18341;DHT22;9296;48.084;16.352;2022-10-26T15:07:19;14.90;99.90
18341;DHT22;9296;48.084;16.352;2022-10-26T15:09:48;14.90;99.90
18341;DHT22;9296;48.084;16.352;2022-10-26T15:12:21;15.20;99.90
18341;DHT22;9296;48.084;16.352;2022-10-26T15:14:49;15.00;99.90
18341;DHT22;9296;48.084;16.352;2022-10-26T15:17:22;15.00;99.90
18341;DHT22;9296;48.084;16.352;2022-10-26T15:19:52;15.00;99.90
18341;DHT22;9296;48.084;16.352;2022-10-26T15:22:22;15.00;99.90
18341;DHT22;9296;48.084;16.352;2022-10-26T15:24:52;14.90;99.90
18341;DHT22;9296;48.084;16.352;2022-10-26T15:27:21;14.80;99.90
18341;DHT22;9296;48.084;16.352;2022-10-26T15:29:51;14.60;99.90
18341;DHT22;9296;48.084;16.352;2022-10-26T15:32:24;14.70;99.90
18341;DHT22;9296;48.084;16.352;2022-10-26T15:37:50;14.60;99.90
18341;DHT22;9296;48.084;16.352;2022-10-26T15:40:38;14.80;99.90
18341;DHT22;9296;48.084;16.352;2022-10-26T15:43:10;14.50;99.90
18341;DHT22;9296;48.084;16.352;2022-10-26T15:45:44;14.50;99.90
18341;DHT22;9296;48.084;16.352;2022-10-26T15:48:20;14.50;99.90
18341;DHT22;9296;48.084;16.352;2022-10-26T15:50:48;14.50;99.90
18341;DHT22;9296;48.084;16.352;2022-10-26T15:53:20;14.40;99.90
18341;DHT22;9296;48.084;16.352;2022-10-26T15:55:52;14.60;99.90
18341;DHT22;9296;48.084;16.352;2022-10-26T15:58:19;14.40;99.90
18341;DHT22;9296;48.084;16.352;2022-10-26T16:00:46;14.30;99.90
18341;DHT22;9296;48.084;16.352;2022-10-26T16:03:20;14.30;99.90
18341;DHT22;9296;48.084;16.352;2022-10-26T16:06:02;14.30;99.90
18341;DHT22;9296;48.084;16.352;2022-10-26T16:08:29;14.30;99.90
18341;DHT22;9296;48.084;16.352;2022-10-26T16:11:18;14.40;99.90
18341;DHT22;9296;48.084;16.352;2022-10-26T16:13:45;14.40;99.90
18341;DHT22;9296;48.084;16.352;2022-10-26T16:16:13;14.40;99.90
18341;DHT22;9296;48.084;16.352;2022-10-26T16:18:40;14.50;99.90
18341;DHT22;9296;48.084;16.352;2022-10-26T16:21:14;14.50;99.90
18341;DHT22;9296;48.084;16.352;2022-10-26T16:23:44;14.40;99.90
18341;DHT22;9296;48.084;16.352;2022-10-26T16:26:12;14.40;99.90
18341;DHT22;9296;48.084;16.352;2022-10-26T16:28:41;14.30;99.90
18341;DHT22;9296;48.084;16.352;2022-10-26T16:31:12;14.50;99.90
18341;DHT22;9296;48.084;16.352;2022-10-26T16:33:39;14.40;99.90
18341;DHT22;9296;48.084;16.352;2022-10-26T16:36:08;14.50;99.90
18341;DHT22;9296;48.084;16.352;2022-10-26T16:38:35;14.40;99.90
18341;DHT22;9296;48.084;16.352;2022-10-26T16:44:11;14.40;99.90
18341;DHT22;9296;48.084;16.352;2022-10-26T16:46:38;14.40;99.90
18341;DHT22;9296;48.084;16.352;2022-10-26T16:49:06;14.40;99.90
18341;DHT22;9296;48.084;16.352;2022-10-26T16:51:33;14.70;99.90
18341;DHT22;9296;48.084;16.352;2022-10-26T16:54:00;14.40;99.90
18341;DHT22;9296;48.084;16.352;2022-10-26T16:59:50;14.50;99.90
18341;DHT22;9296;48.084;16.352;2022-10-26T17:02:17;14.60;99.90
18341;DHT22;9296;48.084;16.352;2022-10-26T17:04:49;14.40;99.90
18341;DHT22;9296;48.084;16.352;2022-10-26T17:07:18;14.50;99.90
18341;DHT22;9296;48.084;16.352;2022-10-26T17:13:07;14.50;99.90
18341;DHT22;9296;48.084;16.352;2022-10-26T17:15:35;14.50;99.90
18341;DHT22;9296;48.084;16.352;2022-10-26T17:18:04;14.50;99.90
18341;DHT22;9296;48.084;16.352;2022-10-26T17:20:32;14.60;99.90
18341;DHT22;9296;48.084;16.352;2022-10-26T17:22:59;14.50;99.90
18341;DHT22;9296;48.084;16.352;2022-10-26T17:25:35;14.30;99.90
18341;DHT22;9296;48.084;16.352;2022-10-26T17:28:06;14.30;99.90
18341;DHT22;9296;48.084;16.352;2022-10-26T17:30:35;14.40;99.90
18341;DHT22;9296;48.084;16.352;2022-10-26T17:33:02;14.30;99.90
18341;DHT22;9296;48.084;16.352;2022-10-26T17:35:31;14.40;99.90
18341;DHT22;9296;48.084;16.352;2022-10-26T17:37:58;14.40;99.90
18341;DHT22;9296;48.084;16.352;2022-10-26T17:40:28;14.30;99.90
18341;DHT22;9296;48.084;16.352;2022-10-26T17:42:54;14.20;99.90
18341;DHT22;9296;48.084;16.352;2022-10-26T17:45:21;14.60;99.90
18341;DHT22;9296;48.084;16.352;2022-10-26T17:47:51;14.30;99.90
18341;DHT22;9296;48.084;16.352;2022-10-26T17:50:18;14.40;99.90
18341;DHT22;9296;48.084;16.352;2022-10-26T17:52:48;14.30;99.90
18341;DHT22;9296;48.084;16.352;2022-10-26T17:55:15;14.30;99.90